»·PEaware :: SWA830 KLAS-KDAL

SWA830 :: KLAS-KDAL

FLIGHT INFORMATION

Flight Status: Arrived
Operator:
Southwest Airlines
More flights by this operator :: More flights under this callsign
Pilot: Anonymous 14085 (14085)
Aircraft: BOEING 737-800
(B738)
More flights by this aircraft type
Origin: KLAS McCarran Intl
United States
Destination: KDAL Dallas Love
United States
More flights between these airports :: More routes between these airports
Route: + / LAS125019 GUP TXO TURKI JFRYE3
File this flight plan on PilotEdge
Remarks: RMK / SIMBRIEF
Altitude:
(Current/Filed)
39,000ft
Speed:
(Current/Filed)
464kts
Departed: 10-Sep-20 02:10 PM
Arrived: 10-Sep-20 04:30 PM
Distance/Time
Traveled:
924nm/2:20
Distance/Time
To Go:
Arrived

Flight Plot

Page will automatically refresh every two minutes.

Flight plan parsing failed; only flown route is shown


Map Options




Map Legend


Flown Route
Filed Route
Departure Airport
Arrival Airport
Navaid (VOR, NDB)
Fix

Horizontal Profiles

Position Reports

Time Latitude Longitude Heading Altitude Ground
Speed
10-Sep-20 13:37 36.080232 -115.147330 56 2189ft 0kts
10-Sep-20 13:38 36.080232 -115.147330 56 2189ft 0kts
10-Sep-20 13:39 36.080232 -115.147330 56 2189ft 0kts
10-Sep-20 13:40 36.080232 -115.147330 56 2189ft 0kts
10-Sep-20 13:41 36.080232 -115.147330 56 2189ft 0kts
10-Sep-20 13:42 36.080232 -115.147330 56 2189ft 0kts
10-Sep-20 13:43 36.080232 -115.147330 56 2189ft 0kts
10-Sep-20 13:44 36.080232 -115.147330 56 2189ft 0kts
10-Sep-20 13:45 36.080232 -115.147330 56 2189ft 0kts
10-Sep-20 13:46 36.080232 -115.147330 56 2189ft 0kts
10-Sep-20 13:47 36.080232 -115.147330 56 2189ft 0kts
10-Sep-20 13:48 36.080232 -115.147330 56 2189ft 0kts
10-Sep-20 13:49 36.080232 -115.147330 56 2189ft 0kts
10-Sep-20 13:50 36.080232 -115.147330 56 2189ft 0kts
10-Sep-20 13:51 36.080232 -115.147330 56 2189ft 0kts
10-Sep-20 13:52 36.080232 -115.147330 56 2189ft 0kts
10-Sep-20 13:53 36.080232 -115.147330 56 2189ft 0kts
10-Sep-20 13:54 36.080232 -115.147330 56 2189ft 0kts
10-Sep-20 13:55 36.080232 -115.147330 56 2189ft 0kts
10-Sep-20 13:56 36.080232 -115.147330 56 2189ft 0kts
10-Sep-20 13:57 36.080105 -115.147699 94 2189ft 2kts
10-Sep-20 13:58 36.080355 -115.148095 156 2189ft 0kts
10-Sep-20 13:59 36.080355 -115.148095 156 2189ft 0kts
10-Sep-20 14:00 36.080355 -115.148095 156 2189ft 0kts
10-Sep-20 14:01 36.080355 -115.148095 156 2189ft 0kts
10-Sep-20 14:02 36.080354 -115.148095 156 2189ft 0kts
10-Sep-20 14:03 36.080247 -115.148037 156 2189ft 0kts
10-Sep-20 14:04 36.079218 -115.147444 155 2189ft 2kts
10-Sep-20 14:05 36.077695 -115.145607 93 2189ft 8kts
10-Sep-20 14:06 36.077582 -115.137741 90 2189ft 39kts
10-Sep-20 14:07 36.077585 -115.125767 90 2189ft 35kts
10-Sep-20 14:08 36.076437 -115.121622 273 2189ft 6kts
10-Sep-20 14:09 36.076380 -115.158288 272 2766ft 189kts
10-Sep-20 14:10 36.073297 -115.233097 253 5577ft 259kts
10-Sep-20 14:11 36.009456 -115.282548 199 9477ft 285kts
10-Sep-20 14:12 35.926924 -115.288356 156 12488ft 326kts
10-Sep-20 14:13 35.855398 -115.212856 111 14764ft 367kts
10-Sep-20 14:14 35.827238 -115.087479 94 17223ft 390kts
10-Sep-20 14:15 35.832588 -114.952872 80 19860ft 400kts
10-Sep-20 14:16 35.832175 -114.813054 90 22162ft 420kts
10-Sep-20 14:17 35.823425 -114.666845 90 24223ft 435kts
10-Sep-20 14:18 35.814378 -114.515871 90 26077ft 450kts
10-Sep-20 14:19 35.804998 -114.359554 90 27769ft 464kts
10-Sep-20 14:20 35.795403 -114.199230 91 29324ft 476kts
10-Sep-20 14:21 35.786397 -114.049174 91 31093ft 476kts
10-Sep-20 14:22 35.775946 -113.875272 91 32979ft 476kts
10-Sep-20 14:23 35.766204 -113.713429 91 34671ft 473kts
10-Sep-20 14:24 35.756536 -113.553091 90 36304ft 469kts
10-Sep-20 14:25 35.746887 -113.393160 90 37648ft 469kts
10-Sep-20 14:26 35.737277 -113.233200 91 38793ft 469kts
10-Sep-20 14:27 35.727648 -113.072231 91 39294ft 479kts
10-Sep-20 14:28 35.717871 -112.909575 90 39389ft 477kts
10-Sep-20 14:29 35.708028 -112.745430 89 39978ft 488kts
10-Sep-20 14:30 35.697877 -112.576828 89 40410ft 503kts
10-Sep-20 14:31 35.687454 -112.404450 89 41097ft 508kts
10-Sep-20 14:32 35.677111 -112.231359 90 41336ft 507kts
10-Sep-20 14:33 35.666836 -112.059618 90 41336ft 503kts
10-Sep-20 14:34 35.656597 -111.888366 90 41334ft 505kts
10-Sep-20 14:35 35.646256 -111.717568 89 41331ft 496kts
10-Sep-20 14:36 35.636068 -111.548518 89 41330ft 499kts
10-Sep-20 14:37 35.625830 -111.378763 89 41328ft 498kts
10-Sep-20 14:38 35.615668 -111.209438 90 41308ft 498kts
10-Sep-20 14:39 35.605506 -111.039494 91 41293ft 498kts
10-Sep-20 14:40 35.595460 -110.871655 93 41291ft 488kts
10-Sep-20 14:41 35.585553 -110.706787 93 41292ft 484kts
10-Sep-20 14:42 35.575617 -110.541114 93 41292ft 488kts
10-Sep-20 14:43 35.565678 -110.375811 93 41292ft 485kts
10-Sep-20 14:44 35.555773 -110.210739 94 41292ft 485kts
10-Sep-20 14:45 35.545879 -110.045078 94 41299ft 487kts
10-Sep-20 14:46 35.536024 -109.879844 93 41311ft 485kts
10-Sep-20 14:47 35.526160 -109.714752 93 41311ft 488kts
10-Sep-20 14:48 35.516218 -109.548747 93 41311ft 487kts
10-Sep-20 14:49 35.506301 -109.383456 93 41314ft 490kts
10-Sep-20 14:50 35.496218 -109.213434 93 41309ft 508kts
10-Sep-20 14:51 35.485895 -109.039411 98 41317ft 520kts
10-Sep-20 14:52 35.473698 -108.862014 104 41318ft 518kts
10-Sep-20 14:53 35.450712 -108.688497 106 41321ft 514kts
10-Sep-20 14:54 35.427160 -108.516270 106 41320ft 513kts
10-Sep-20 14:55 35.403206 -108.343507 107 41340ft 515kts
10-Sep-20 14:56 35.379182 -108.171513 106 41366ft 512kts
10-Sep-20 14:57 35.354723 -107.998919 106 41366ft 515kts
10-Sep-20 14:59 35.329986 -107.825970 107 41366ft 515kts
10-Sep-20 15:00 35.305124 -107.654412 107 41366ft 512kts
10-Sep-20 15:01 35.279997 -107.482793 106 41367ft 514kts
10-Sep-20 15:02 35.254447 -107.309857 107 41379ft 514kts
10-Sep-20 15:03 35.228822 -107.137621 107 41383ft 514kts
10-Sep-20 15:04 35.203068 -106.966707 108 41385ft 510kts
10-Sep-20 15:05 35.177239 -106.797123 109 41384ft 505kts
10-Sep-20 15:06 35.151321 -106.628748 109 41379ft 502kts
10-Sep-20 15:07 35.125307 -106.461311 109 41375ft 503kts
10-Sep-20 15:08 35.099036 -106.293562 110 41374ft 501kts
10-Sep-20 15:09 35.072715 -106.126872 110 41379ft 501kts
10-Sep-20 15:10 35.046071 -105.960108 110 41387ft 502kts
10-Sep-20 15:11 35.019187 -105.793198 110 41402ft 500kts
10-Sep-20 15:12 34.992153 -105.627047 109 41402ft 498kts
10-Sep-20 15:13 34.965006 -105.461737 109 41405ft 495kts
10-Sep-20 15:14 34.937845 -105.297549 109 41404ft 493kts
10-Sep-20 15:15 34.910694 -105.134727 109 41402ft 490kts
10-Sep-20 15:15 34.887808 -104.998775 108 41402ft 487kts
10-Sep-20 15:16 34.860772 -104.839336 109 41402ft 478kts
10-Sep-20 15:18 34.828969 -104.653813 109 41402ft 481kts
10-Sep-20 15:19 34.801461 -104.494579 109 41402ft 480kts
10-Sep-20 15:19 34.778444 -104.362365 109 41402ft 480kts
10-Sep-20 15:20 34.750665 -104.203738 109 41402ft 479kts
10-Sep-20 15:22 34.718049 -104.019291 109 41393ft 479kts
10-Sep-20 15:22 34.694552 -103.887504 109 41385ft 479kts
10-Sep-20 15:23 34.666170 -103.729517 109 41387ft 479kts
10-Sep-20 15:24 34.637550 -103.571433 109 41390ft 479kts
10-Sep-20 15:25 34.608666 -103.413127 109 41393ft 479kts
10-Sep-20 15:26 34.579766 -103.255804 110 41399ft 478kts
10-Sep-20 15:27 34.550626 -103.098430 110 41402ft 478kts
10-Sep-20 15:28 34.521429 -102.941964 111 41402ft 474kts
10-Sep-20 15:29 34.493625 -102.785973 107 41403ft 479kts
10-Sep-20 15:30 34.474463 -102.625637 106 41399ft 481kts
10-Sep-20 15:31 34.457042 -102.464845 105 41393ft 481kts
10-Sep-20 15:32 34.440077 -102.304561 105 41390ft 477kts
10-Sep-20 15:33 34.424000 -102.151825 106 41390ft 451kts
10-Sep-20 15:34 34.407523 -101.998878 106 41368ft 460kts
10-Sep-20 15:35 34.391402 -101.849232 106 41366ft 439kts
10-Sep-20 15:36 34.375040 -101.700995 106 41366ft 448kts
10-Sep-20 15:37 34.358562 -101.552013 106 41365ft 445kts
10-Sep-20 15:38 34.341920 -101.403661 106 41366ft 446kts
10-Sep-20 15:39 34.325149 -101.255304 107 41365ft 444kts
10-Sep-20 15:40 34.308217 -101.107595 108 41366ft 443kts
10-Sep-20 15:41 34.285654 -100.958617 109 41361ft 462kts
10-Sep-20 15:42 34.262022 -100.805664 107 41344ft 444kts
10-Sep-20 15:43 34.239828 -100.661978 107 41351ft 441kts
10-Sep-20 15:44 34.217122 -100.515582 107 41345ft 442kts
10-Sep-20 15:45 34.194572 -100.369981 107 41347ft 441kts
10-Sep-20 15:46 34.172159 -100.225065 108 41346ft 436kts
10-Sep-20 15:47 34.150215 -100.082916 108 41347ft 427kts
10-Sep-20 15:48 34.128348 -99.941799 108 41348ft 429kts
10-Sep-20 15:49 34.106365 -99.799935 108 41346ft 431kts
10-Sep-20 15:50 34.084441 -99.658367 108 41329ft 428kts
10-Sep-20 15:51 34.062527 -99.516942 108 41314ft 429kts
10-Sep-20 15:52 34.040678 -99.375774 107 41305ft 429kts
10-Sep-20 15:53 34.017871 -99.249405 116 41304ft 420kts
10-Sep-20 15:54 33.978948 -99.117433 118 41302ft 419kts
10-Sep-20 15:55 33.937912 -98.984924 117 40562ft 431kts
10-Sep-20 15:56 33.895746 -98.850647 116 38268ft 440kts
10-Sep-20 15:57 33.850022 -98.706944 115 33170ft 469kts
10-Sep-20 15:58 33.803545 -98.560582 114 28811ft 472kts
10-Sep-20 15:59 33.759523 -98.421746 114 26372ft 418kts
10-Sep-20 16:00 33.719264 -98.295204 115 24425ft 395kts
10-Sep-20 16:01 33.680918 -98.175135 115 22517ft 380kts
10-Sep-20 16:02 33.642326 -98.054790 114 20545ft 379kts
10-Sep-20 16:03 33.605208 -97.939599 114 18313ft 371kts
10-Sep-20 16:04 33.567553 -97.823302 113 15499ft 362kts
10-Sep-20 16:05 33.532346 -97.714953 113 13599ft 340kts
10-Sep-20 16:06 33.498514 -97.611176 112 11717ft 328kts
10-Sep-20 16:07 33.466416 -97.513060 112 10016ft 303kts
10-Sep-20 16:08 33.448783 -97.417219 93 10019ft 299kts
10-Sep-20 16:09 33.445124 -97.318030 93 9106ft 294kts
10-Sep-20 16:10 33.441433 -97.220434 93 8105ft 291kts
10-Sep-20 16:11 33.437696 -97.123839 92 6724ft 289kts
10-Sep-20 16:12 33.428660 -97.029734 118 5216ft 285kts
10-Sep-20 16:13 33.384445 -96.952939 132 4037ft 275kts
10-Sep-20 16:14 33.332361 -96.886297 132 3049ft 271kts
10-Sep-20 16:15 33.280396 -96.820794 132 3003ft 272kts
10-Sep-20 16:16 33.228205 -96.755677 135 3001ft 272kts
10-Sep-20 16:17 33.173628 -96.693474 135 2994ft 266kts
10-Sep-20 16:18 33.118695 -96.641309 152 3003ft 251kts
10-Sep-20 16:19 33.056839 -96.603051 152 3000ft 250kts
10-Sep-20 16:20 32.996933 -96.614009 203 2995ft 223kts
10-Sep-20 16:21 32.942924 -96.638884 202 2577ft 195kts
10-Sep-20 16:22 32.892745 -96.658545 210 2221ft 190kts
10-Sep-20 16:23 32.848820 -96.689425 212 2221ft 178kts
10-Sep-20 16:24 32.806749 -96.716149 209 2196ft 170kts
10-Sep-20 16:25 32.776319 -96.752525 269 2045ft 161kts
10-Sep-20 16:26 32.800017 -96.790418 316 1667ft 137kts
10-Sep-20 16:27 32.825928 -96.820638 317 952ft 129kts
10-Sep-20 16:28 32.849290 -96.847519 316 490ft 54kts
10-Sep-20 16:29 32.851838 -96.852200 187 485ft 17kts
10-Sep-20 16:30 32.847467 -96.852712 93 482ft 8kts
10-Sep-20 16:31 32.847002 -96.851798 184 483ft 2kts
10-Sep-20 16:32 32.836998 -96.833164 315 681ft 129kts
10-Sep-20 16:33 32.830907 -96.826142 317 833ft 129kts
10-Sep-20 16:34 32.846971 -96.851801 184 483ft 2kts
10-Sep-20 16:35 32.846482 -96.851825 179 482ft 0kts
10-Sep-20 16:36 32.846482 -96.851825 179 482ft 0kts
10-Sep-20 16:37 32.846482 -96.851825 179 482ft 0kts
10-Sep-20 16:38 32.846482 -96.851825 179 482ft 0kts
10-Sep-20 16:39 32.846482 -96.851825 179 482ft 0kts
10-Sep-20 16:40 32.846482 -96.851825 179 482ft 0kts

Navigation Log

Ident Type
Flight plan parsing failed, navigation log unavailable